createdAt,value
2023-03-22T22:05:47.753Z,51009.3711
2023-03-22T22:05:47.753Z,51009.3711
2023-03-22T22:06:45.936Z,51009.3711
2023-03-22T22:07:50.044Z,51009.3711
2023-03-22T22:09:20.344Z,20.2954
2023-03-22T22:10:21.696Z,16.1791
2023-03-22T22:11:23.216Z,16.5433
2023-03-22T22:12:24.577Z,13.4455
2023-03-22T22:13:25.924Z,17.9666
2023-03-22T22:14:27.315Z,18.3260
2023-03-22T22:15:28.704Z,16.9295
2023-03-22T22:16:30.004Z,15.2312
2023-03-22T22:17:33.324Z,17.5936
2023-03-22T22:18:33.587Z,16.4799
2023-03-22T22:19:35.019Z,17.1987
2023-03-22T22:20:36.316Z,15.3682
2023-03-22T22:21:37.669Z,19.3316
2023-03-22T22:22:39.210Z,14.5332
2023-03-22T22:23:40.556Z,17.5995
2023-03-22T22:24:41.961Z,20.6281
2023-03-22T22:25:43.350Z,12.5763
2023-03-22T22:27:22.801Z,15.8823
2023-03-22T22:28:24.262Z,17.5605
2023-03-22T22:30:54.921Z,14.1412
2023-03-22T22:31:56.345Z,15.1882
2023-03-22T22:32:57.894Z,28.2247
2023-03-22T22:34:54.989Z,17.0157
2023-03-22T22:35:56.449Z,18.4957
2023-03-22T22:38:20.256Z,18.3755
2023-03-22T22:39:21.678Z,14.8478
2023-03-22T22:40:23.135Z,17.2640
2023-03-22T22:41:24.623Z,18.1236
2023-03-22T22:42:26.065Z,16.6276
2023-03-22T22:43:27.648Z,16.4933
2023-03-22T22:44:29.148Z,18.8969
2023-03-22T22:45:30.750Z,16.4786
2023-03-22T22:46:32.220Z,17.5209
2023-03-22T22:47:33.656Z,16.6206
2023-03-22T22:48:35.227Z,14.9460
2023-03-22T22:49:37.163Z,16.3372
2023-03-22T22:50:39.343Z,15.0551
2023-03-22T22:51:41.254Z,18.0842
2023-03-22T22:52:42.966Z,17.3464
2023-03-22T22:53:44.927Z,18.5365
2023-03-22T22:55:42.402Z,17.9081
2023-03-22T22:56:43.406Z,16.4835
2023-03-22T22:57:44.675Z,14.9796
2023-03-22T22:58:46.266Z,17.1820
2023-03-22T22:59:46.876Z,14.7446
